<?xml version="1.0" encoding="UTF-8" standalone="no" ?>
<gpx xmlns="http://www.topografix.com/GPX/1/1" xmlns:xsi="http://www.w3.org/2001/XMLSchema-instance" xsi:schemaLocation="http://www.topografix.com/GPX/1/1 http://www.topografix.com/GPX/1/1/gpx.xsd" version="1.1" creator="VisuGPX - https://www.visugpx.com">
  <metadata>
    <name>Col de l'Arc parapente</name>
    <desc><![CDATA[Col de l'Arc parapente Juin 2018]]></desc>
  </metadata>
  <trk>
    <name><![CDATA[2018-06-26 05:55]]></name>
    <trkseg>
      <trkpt lat="45.07039" lon="5.64182">
        <ele>389.02</ele>
        <time>2018-06-26T03:55:16Z</time>
      </trkpt>
      <trkpt lat="45.07056" lon="5.64199">
        <ele>389.15</ele>
        <time>2018-06-26T03:55:36Z</time>
      </trkpt>
      <trkpt lat="45.0707" lon="5.64216">
        <ele>389.26</ele>
        <time>2018-06-26T03:55:46Z</time>
      </trkpt>
      <trkpt lat="45.07087" lon="5.64228">
        <ele>389.46</ele>
        <time>2018-06-26T03:56:00Z</time>
      </trkpt>
      <trkpt lat="45.07105" lon="5.64224">
        <ele>389.68</ele>
        <time>2018-06-26T03:56:16Z</time>
      </trkpt>
      <trkpt lat="45.07125" lon="5.64218">
        <ele>389.86</ele>
        <time>2018-06-26T03:56:28Z</time>
      </trkpt>
      <trkpt lat="45.07147" lon="5.64223">
        <ele>390.06</ele>
        <time>2018-06-26T03:56:40Z</time>
      </trkpt>
      <trkpt lat="45.07158" lon="5.64195">
        <ele>390.29</ele>
        <time>2018-06-26T03:56:58Z</time>
      </trkpt>
      <trkpt lat="45.07158" lon="5.64168">
        <ele>390.39</ele>
        <time>2018-06-26T03:57:10Z</time>
      </trkpt>
      <trkpt lat="45.07161" lon="5.64141">
        <ele>390.6</ele>
        <time>2018-06-26T03:57:24Z</time>
      </trkpt>
      <trkpt lat="45.0716" lon="5.64114">
        <ele>391</ele>
        <time>2018-06-26T03:57:40Z</time>
      </trkpt>
      <trkpt lat="45.07166" lon="5.6409">
        <ele>391.79</ele>
        <time>2018-06-26T03:57:54Z</time>
      </trkpt>
      <trkpt lat="45.07172" lon="5.64062">
        <ele>392.44</ele>
        <time>2018-06-26T03:58:06Z</time>
      </trkpt>
      <trkpt lat="45.07165" lon="5.64038">
        <ele>393.26</ele>
        <time>2018-06-26T03:58:16Z</time>
      </trkpt>
      <trkpt lat="45.07154" lon="5.64016">
        <ele>394.26</ele>
        <time>2018-06-26T03:58:28Z</time>
      </trkpt>
      <trkpt lat="45.07146" lon="5.63989">
        <ele>395.27</ele>
        <time>2018-06-26T03:58:40Z</time>
      </trkpt>
      <trkpt lat="45.07144" lon="5.63961">
        <ele>396.48</ele>
        <time>2018-06-26T03:58:54Z</time>
      </trkpt>
      <trkpt lat="45.07143" lon="5.63934">
        <ele>397.49</ele>
        <time>2018-06-26T03:59:06Z</time>
      </trkpt>
      <trkpt lat="45.07138" lon="5.63908">
        <ele>398.5</ele>
        <time>2018-06-26T03:59:18Z</time>
      </trkpt>
      <trkpt lat="45.07121" lon="5.63889">
        <ele>399.4</ele>
        <time>2018-06-26T03:59:30Z</time>
      </trkpt>
      <trkpt lat="45.07107" lon="5.63873">
        <ele>400.21</ele>
        <time>2018-06-26T03:59:42Z</time>
      </trkpt>
      <trkpt lat="45.07118" lon="5.6385">
        <ele>403.2</ele>
        <time>2018-06-26T04:00:10Z</time>
      </trkpt>
      <trkpt lat="45.07129" lon="5.63826">
        <ele>404.77</ele>
        <time>2018-06-26T04:00:28Z</time>
      </trkpt>
      <trkpt lat="45.07135" lon="5.63802">
        <ele>405.52</ele>
        <time>2018-06-26T04:00:38Z</time>
      </trkpt>
      <trkpt lat="45.07152" lon="5.63793">
        <ele>406.45</ele>
        <time>2018-06-26T04:00:52Z</time>
      </trkpt>
      <trkpt lat="45.0717" lon="5.63785">
        <ele>407.17</ele>
        <time>2018-06-26T04:01:04Z</time>
      </trkpt>
      <trkpt lat="45.07178" lon="5.63762">
        <ele>407.85</ele>
        <time>2018-06-26T04:01:16Z</time>
      </trkpt>
      <trkpt lat="45.07177" lon="5.63733">
        <ele>408.83</ele>
        <time>2018-06-26T04:01:30Z</time>
      </trkpt>
      <trkpt lat="45.07183" lon="5.63709">
        <ele>410.35</ele>
        <time>2018-06-26T04:01:46Z</time>
      </trkpt>
      <trkpt lat="45.07198" lon="5.63692">
        <ele>411.85</ele>
        <time>2018-06-26T04:02:00Z</time>
      </trkpt>
      <trkpt lat="45.07203" lon="5.63664">
        <ele>413.56</ele>
        <time>2018-06-26T04:02:16Z</time>
      </trkpt>
      <trkpt lat="45.07217" lon="5.63642">
        <ele>415.46</ele>
        <time>2018-06-26T04:02:34Z</time>
      </trkpt>
      <trkpt lat="45.07229" lon="5.6362">
        <ele>416.89</ele>
        <time>2018-06-26T04:02:48Z</time>
      </trkpt>
      <trkpt lat="45.0725" lon="5.63616">
        <ele>418.75</ele>
        <time>2018-06-26T04:03:03Z</time>
      </trkpt>
      <trkpt lat="45.07268" lon="5.63621">
        <ele>420.67</ele>
        <time>2018-06-26T04:03:17Z</time>
      </trkpt>
      <trkpt lat="45.07286" lon="5.63613">
        <ele>423.54</ele>
        <time>2018-06-26T04:03:31Z</time>
      </trkpt>
      <trkpt lat="45.073" lon="5.63593">
        <ele>425.45</ele>
        <time>2018-06-26T04:03:39Z</time>
      </trkpt>
      <trkpt lat="45.07314" lon="5.63578">
        <ele>429.46</ele>
        <time>2018-06-26T04:03:57Z</time>
      </trkpt>
      <trkpt lat="45.07331" lon="5.63588">
        <ele>433.15</ele>
        <time>2018-06-26T04:04:17Z</time>
      </trkpt>
      <trkpt lat="45.07341" lon="5.6361">
        <ele>436.81</ele>
        <time>2018-06-26T04:04:37Z</time>
      </trkpt>
      <trkpt lat="45.07347" lon="5.63636">
        <ele>446.35</ele>
        <time>2018-06-26T04:05:31Z</time>
      </trkpt>
      <trkpt lat="45.07358" lon="5.63657">
        <ele>451.23</ele>
        <time>2018-06-26T04:05:49Z</time>
      </trkpt>
      <trkpt lat="45.07374" lon="5.63678">
        <ele>456.27</ele>
        <time>2018-06-26T04:06:09Z</time>
      </trkpt>
      <trkpt lat="45.07393" lon="5.63683">
        <ele>461.82</ele>
        <time>2018-06-26T04:06:31Z</time>
      </trkpt>
      <trkpt lat="45.07412" lon="5.63689">
        <ele>466.63</ele>
        <time>2018-06-26T04:06:51Z</time>
      </trkpt>
      <trkpt lat="45.07427" lon="5.63706">
        <ele>470.6</ele>
        <time>2018-06-26T04:07:09Z</time>
      </trkpt>
      <trkpt lat="45.07443" lon="5.6372">
        <ele>477.52</ele>
        <time>2018-06-26T04:07:31Z</time>
      </trkpt>
      <trkpt lat="45.07458" lon="5.63738">
        <ele>484.41</ele>
        <time>2018-06-26T04:07:51Z</time>
      </trkpt>
      <trkpt lat="45.07474" lon="5.63758">
        <ele>490.59</ele>
        <time>2018-06-26T04:08:09Z</time>
      </trkpt>
      <trkpt lat="45.07486" lon="5.63777">
        <ele>497.27</ele>
        <time>2018-06-26T04:08:29Z</time>
      </trkpt>
      <trkpt lat="45.07502" lon="5.63763">
        <ele>510.68</ele>
        <time>2018-06-26T04:09:11Z</time>
      </trkpt>
      <trkpt lat="45.07505" lon="5.63735">
        <ele>516.16</ele>
        <time>2018-06-26T04:09:33Z</time>
      </trkpt>
      <trkpt lat="45.07515" lon="5.63708">
        <ele>520.16</ele>
        <time>2018-06-26T04:09:49Z</time>
      </trkpt>
      <trkpt lat="45.07524" lon="5.63683">
        <ele>524.68</ele>
        <time>2018-06-26T04:10:07Z</time>
      </trkpt>
      <trkpt lat="45.0754" lon="5.63696">
        <ele>531.45</ele>
        <time>2018-06-26T04:10:27Z</time>
      </trkpt>
      <trkpt lat="45.07557" lon="5.63711">
        <ele>537.77</ele>
        <time>2018-06-26T04:10:45Z</time>
      </trkpt>
      <trkpt lat="45.0756" lon="5.63684">
        <ele>548.37</ele>
        <time>2018-06-26T04:11:17Z</time>
      </trkpt>
      <trkpt lat="45.0757" lon="5.63661">
        <ele>554.08</ele>
        <time>2018-06-26T04:11:37Z</time>
      </trkpt>
      <trkpt lat="45.07573" lon="5.63634">
        <ele>559.46</ele>
        <time>2018-06-26T04:11:59Z</time>
      </trkpt>
      <trkpt lat="45.07572" lon="5.63609">
        <ele>563.74</ele>
        <time>2018-06-26T04:12:21Z</time>
      </trkpt>
      <trkpt lat="45.07566" lon="5.63583">
        <ele>566.26</ele>
        <time>2018-06-26T04:12:37Z</time>
      </trkpt>
      <trkpt lat="45.0756" lon="5.63557">
        <ele>569.1</ele>
        <time>2018-06-26T04:12:55Z</time>
      </trkpt>
      <trkpt lat="45.07555" lon="5.6353">
        <ele>572.54</ele>
        <time>2018-06-26T04:13:17Z</time>
      </trkpt>
      <trkpt lat="45.07562" lon="5.63504">
        <ele>575.24</ele>
        <time>2018-06-26T04:13:33Z</time>
      </trkpt>
      <trkpt lat="45.07571" lon="5.6348">
        <ele>576.92</ele>
        <time>2018-06-26T04:13:43Z</time>
      </trkpt>
      <trkpt lat="45.0758" lon="5.63453">
        <ele>580.17</ele>
        <time>2018-06-26T04:14:01Z</time>
      </trkpt>
      <trkpt lat="45.07582" lon="5.63426">
        <ele>585.92</ele>
        <time>2018-06-26T04:14:23Z</time>
      </trkpt>
      <trkpt lat="45.0759" lon="5.63401">
        <ele>592.73</ele>
        <time>2018-06-26T04:14:56Z</time>
      </trkpt>
      <trkpt lat="45.07608" lon="5.63385">
        <ele>608.08</ele>
        <time>2018-06-26T04:16:20Z</time>
      </trkpt>
      <trkpt lat="45.07625" lon="5.63403">
        <ele>616.22</ele>
        <time>2018-06-26T04:16:52Z</time>
      </trkpt>
      <trkpt lat="45.07642" lon="5.63416">
        <ele>619.88</ele>
        <time>2018-06-26T04:17:06Z</time>
      </trkpt>
      <trkpt lat="45.07658" lon="5.6343">
        <ele>626.23</ele>
        <time>2018-06-26T04:17:30Z</time>
      </trkpt>
      <trkpt lat="45.07676" lon="5.63437">
        <ele>633.07</ele>
        <time>2018-06-26T04:17:56Z</time>
      </trkpt>
      <trkpt lat="45.07688" lon="5.6346">
        <ele>639</ele>
        <time>2018-06-26T04:18:14Z</time>
      </trkpt>
      <trkpt lat="45.07705" lon="5.63476">
        <ele>644.39</ele>
        <time>2018-06-26T04:18:28Z</time>
      </trkpt>
      <trkpt lat="45.0772" lon="5.63493">
        <ele>650.8</ele>
        <time>2018-06-26T04:18:46Z</time>
      </trkpt>
      <trkpt lat="45.07738" lon="5.63502">
        <ele>664.8</ele>
        <time>2018-06-26T04:19:26Z</time>
      </trkpt>
      <trkpt lat="45.07745" lon="5.63526">
        <ele>676.5</ele>
        <time>2018-06-26T04:19:56Z</time>
      </trkpt>
      <trkpt lat="45.07751" lon="5.63502">
        <ele>692.43</ele>
        <time>2018-06-26T04:20:42Z</time>
      </trkpt>
      <trkpt lat="45.07756" lon="5.63477">
        <ele>700.59</ele>
        <time>2018-06-26T04:21:04Z</time>
      </trkpt>
      <trkpt lat="45.07775" lon="5.63475">
        <ele>725.44</ele>
        <time>2018-06-26T04:22:37Z</time>
      </trkpt>
      <trkpt lat="45.07784" lon="5.63452">
        <ele>737.62</ele>
        <time>2018-06-26T04:23:17Z</time>
      </trkpt>
      <trkpt lat="45.07788" lon="5.63425">
        <ele>742.13</ele>
        <time>2018-06-26T04:23:39Z</time>
      </trkpt>
      <trkpt lat="45.07799" lon="5.63405">
        <ele>746.59</ele>
        <time>2018-06-26T04:24:07Z</time>
      </trkpt>
      <trkpt lat="45.07817" lon="5.63389">
        <ele>749.3</ele>
        <time>2018-06-26T04:24:27Z</time>
      </trkpt>
      <trkpt lat="45.07832" lon="5.63404">
        <ele>752.6</ele>
        <time>2018-06-26T04:24:51Z</time>
      </trkpt>
      <trkpt lat="45.0785" lon="5.63412">
        <ele>758.33</ele>
        <time>2018-06-26T04:25:27Z</time>
      </trkpt>
      <trkpt lat="45.07868" lon="5.63416">
        <ele>762.04</ele>
        <time>2018-06-26T04:25:47Z</time>
      </trkpt>
      <trkpt lat="45.0788" lon="5.63438">
        <ele>765.34</ele>
        <time>2018-06-26T04:26:05Z</time>
      </trkpt>
      <trkpt lat="45.0789" lon="5.63415">
        <ele>784.54</ele>
        <time>2018-06-26T04:27:27Z</time>
      </trkpt>
      <trkpt lat="45.07884" lon="5.6339">
        <ele>788.6</ele>
        <time>2018-06-26T04:27:43Z</time>
      </trkpt>
      <trkpt lat="45.0788" lon="5.63363">
        <ele>792.15</ele>
        <time>2018-06-26T04:27:59Z</time>
      </trkpt>
      <trkpt lat="45.07872" lon="5.6334">
        <ele>796.81</ele>
        <time>2018-06-26T04:28:23Z</time>
      </trkpt>
      <trkpt lat="45.07865" lon="5.63314">
        <ele>799.96</ele>
        <time>2018-06-26T04:28:37Z</time>
      </trkpt>
      <trkpt lat="45.07855" lon="5.63289">
        <ele>803.37</ele>
        <time>2018-06-26T04:28:53Z</time>
      </trkpt>
      <trkpt lat="45.07845" lon="5.63264">
        <ele>806.73</ele>
        <time>2018-06-26T04:29:11Z</time>
      </trkpt>
      <trkpt lat="45.07839" lon="5.63238">
        <ele>809.62</ele>
        <time>2018-06-26T04:29:27Z</time>
      </trkpt>
      <trkpt lat="45.07851" lon="5.63217">
        <ele>815.74</ele>
        <time>2018-06-26T04:30:03Z</time>
      </trkpt>
      <trkpt lat="45.07857" lon="5.63192">
        <ele>821.4</ele>
        <time>2018-06-26T04:30:25Z</time>
      </trkpt>
      <trkpt lat="45.07849" lon="5.63163">
        <ele>823.79</ele>
        <time>2018-06-26T04:30:35Z</time>
      </trkpt>
      <trkpt lat="45.07848" lon="5.63136">
        <ele>829.49</ele>
        <time>2018-06-26T04:30:59Z</time>
      </trkpt>
      <trkpt lat="45.07852" lon="5.63107">
        <ele>834.97</ele>
        <time>2018-06-26T04:31:25Z</time>
      </trkpt>
      <trkpt lat="45.0786" lon="5.63083">
        <ele>838.6</ele>
        <time>2018-06-26T04:31:47Z</time>
      </trkpt>
      <trkpt lat="45.0785" lon="5.63055">
        <ele>840.5</ele>
        <time>2018-06-26T04:32:01Z</time>
      </trkpt>
      <trkpt lat="45.07843" lon="5.63028">
        <ele>842.78</ele>
        <time>2018-06-26T04:32:17Z</time>
      </trkpt>
      <trkpt lat="45.07832" lon="5.63008">
        <ele>843.67</ele>
        <time>2018-06-26T04:32:23Z</time>
      </trkpt>
      <trkpt lat="45.07822" lon="5.62986">
        <ele>845.39</ele>
        <time>2018-06-26T04:32:33Z</time>
      </trkpt>
      <trkpt lat="45.07814" lon="5.62963">
        <ele>848.1</ele>
        <time>2018-06-26T04:32:47Z</time>
      </trkpt>
      <trkpt lat="45.07803" lon="5.62942">
        <ele>851.87</ele>
        <time>2018-06-26T04:33:03Z</time>
      </trkpt>
      <trkpt lat="45.07802" lon="5.62916">
        <ele>858.91</ele>
        <time>2018-06-26T04:33:35Z</time>
      </trkpt>
      <trkpt lat="45.07799" lon="5.62889">
        <ele>863.42</ele>
        <time>2018-06-26T04:33:55Z</time>
      </trkpt>
      <trkpt lat="45.07802" lon="5.62861">
        <ele>865.74</ele>
        <time>2018-06-26T04:34:11Z</time>
      </trkpt>
      <trkpt lat="45.07796" lon="5.62836">
        <ele>867.15</ele>
        <time>2018-06-26T04:34:21Z</time>
      </trkpt>
      <trkpt lat="45.07783" lon="5.62812">
        <ele>867.93</ele>
        <time>2018-06-26T04:34:25Z</time>
      </trkpt>
      <trkpt lat="45.07768" lon="5.62794">
        <ele>868.88</ele>
        <time>2018-06-26T04:34:29Z</time>
      </trkpt>
      <trkpt lat="45.07759" lon="5.62769">
        <ele>874.5</ele>
        <time>2018-06-26T04:34:47Z</time>
      </trkpt>
      <trkpt lat="45.07752" lon="5.62741">
        <ele>875.81</ele>
        <time>2018-06-26T04:34:51Z</time>
      </trkpt>
      <trkpt lat="45.07738" lon="5.62722">
        <ele>882.41</ele>
        <time>2018-06-26T04:35:09Z</time>
      </trkpt>
      <trkpt lat="45.07727" lon="5.62702">
        <ele>886.72</ele>
        <time>2018-06-26T04:35:19Z</time>
      </trkpt>
      <trkpt lat="45.07719" lon="5.62674">
        <ele>892.71</ele>
        <time>2018-06-26T04:35:35Z</time>
      </trkpt>
      <trkpt lat="45.07717" lon="5.62648">
        <ele>896.33</ele>
        <time>2018-06-26T04:35:47Z</time>
      </trkpt>
      <trkpt lat="45.07713" lon="5.62619">
        <ele>900.03</ele>
        <time>2018-06-26T04:36:01Z</time>
      </trkpt>
      <trkpt lat="45.07711" lon="5.62592">
        <ele>905.39</ele>
        <time>2018-06-26T04:36:23Z</time>
      </trkpt>
      <trkpt lat="45.07712" lon="5.62563">
        <ele>908.69</ele>
        <time>2018-06-26T04:36:37Z</time>
      </trkpt>
      <trkpt lat="45.07714" lon="5.62535">
        <ele>913.92</ele>
        <time>2018-06-26T04:37:01Z</time>
      </trkpt>
      <trkpt lat="45.07706" lon="5.6251">
        <ele>917.3</ele>
        <time>2018-06-26T04:37:17Z</time>
      </trkpt>
      <trkpt lat="45.077" lon="5.62486">
        <ele>919.53</ele>
        <time>2018-06-26T04:37:27Z</time>
      </trkpt>
      <trkpt lat="45.07704" lon="5.62459">
        <ele>922.94</ele>
        <time>2018-06-26T04:37:43Z</time>
      </trkpt>
      <trkpt lat="45.07715" lon="5.62433">
        <ele>925.81</ele>
        <time>2018-06-26T04:37:59Z</time>
      </trkpt>
      <trkpt lat="45.07733" lon="5.62427">
        <ele>939.25</ele>
        <time>2018-06-26T04:38:48Z</time>
      </trkpt>
      <trkpt lat="45.0775" lon="5.6242">
        <ele>946.01</ele>
        <time>2018-06-26T04:39:30Z</time>
      </trkpt>
      <trkpt lat="45.07749" lon="5.62447">
        <ele>962.77</ele>
        <time>2018-06-26T04:40:44Z</time>
      </trkpt>
      <trkpt lat="45.07761" lon="5.62466">
        <ele>967.37</ele>
        <time>2018-06-26T04:41:10Z</time>
      </trkpt>
      <trkpt lat="45.0777" lon="5.62491">
        <ele>969.64</ele>
        <time>2018-06-26T04:41:24Z</time>
      </trkpt>
      <trkpt lat="45.07788" lon="5.62504">
        <ele>972.62</ele>
        <time>2018-06-26T04:41:48Z</time>
      </trkpt>
      <trkpt lat="45.07807" lon="5.62511">
        <ele>978.71</ele>
        <time>2018-06-26T04:42:20Z</time>
      </trkpt>
      <trkpt lat="45.07818" lon="5.62533">
        <ele>986.24</ele>
        <time>2018-06-26T04:42:46Z</time>
      </trkpt>
      <trkpt lat="45.07835" lon="5.6255">
        <ele>1005.71</ele>
        <time>2018-06-26T04:43:34Z</time>
      </trkpt>
      <trkpt lat="45.07848" lon="5.62575">
        <ele>1009.46</ele>
        <time>2018-06-26T04:43:54Z</time>
      </trkpt>
      <trkpt lat="45.07856" lon="5.62598">
        <ele>1015.63</ele>
        <time>2018-06-26T04:44:22Z</time>
      </trkpt>
      <trkpt lat="45.07874" lon="5.62607">
        <ele>1019.26</ele>
        <time>2018-06-26T04:44:36Z</time>
      </trkpt>
      <trkpt lat="45.07887" lon="5.62626">
        <ele>1021.92</ele>
        <time>2018-06-26T04:44:48Z</time>
      </trkpt>
      <trkpt lat="45.07897" lon="5.62649">
        <ele>1041.5</ele>
        <time>2018-06-26T04:45:54Z</time>
      </trkpt>
      <trkpt lat="45.07904" lon="5.62672">
        <ele>1049.74</ele>
        <time>2018-06-26T04:46:50Z</time>
      </trkpt>
      <trkpt lat="45.07897" lon="5.62696">
        <ele>1057.2</ele>
        <time>2018-06-26T04:47:44Z</time>
      </trkpt>
      <trkpt lat="45.0791" lon="5.62673">
        <ele>1070.82</ele>
        <time>2018-06-26T04:49:01Z</time>
      </trkpt>
      <trkpt lat="45.07927" lon="5.62663">
        <ele>1075.09</ele>
        <time>2018-06-26T04:49:29Z</time>
      </trkpt>
      <trkpt lat="45.07944" lon="5.62652">
        <ele>1081.38</ele>
        <time>2018-06-26T04:50:05Z</time>
      </trkpt>
      <trkpt lat="45.07961" lon="5.62643">
        <ele>1086.53</ele>
        <time>2018-06-26T04:50:33Z</time>
      </trkpt>
      <trkpt lat="45.0798" lon="5.62636">
        <ele>1093.82</ele>
        <time>2018-06-26T04:51:09Z</time>
      </trkpt>
      <trkpt lat="45.07999" lon="5.62642">
        <ele>1097.96</ele>
        <time>2018-06-26T04:51:33Z</time>
      </trkpt>
      <trkpt lat="45.08018" lon="5.62656">
        <ele>1101.75</ele>
        <time>2018-06-26T04:51:49Z</time>
      </trkpt>
      <trkpt lat="45.08034" lon="5.6267">
        <ele>1105.57</ele>
        <time>2018-06-26T04:52:06Z</time>
      </trkpt>
      <trkpt lat="45.08048" lon="5.6269">
        <ele>1112.16</ele>
        <time>2018-06-26T04:52:18Z</time>
      </trkpt>
      <trkpt lat="45.0806" lon="5.62711">
        <ele>1117.9</ele>
        <time>2018-06-26T04:52:32Z</time>
      </trkpt>
      <trkpt lat="45.08053" lon="5.62684">
        <ele>1135.01</ele>
        <time>2018-06-26T04:53:09Z</time>
      </trkpt>
      <trkpt lat="45.08064" lon="5.62717">
        <ele>1142.53</ele>
        <time>2018-06-26T04:53:46Z</time>
      </trkpt>
      <trkpt lat="45.08081" lon="5.62698">
        <ele>1142.84</ele>
        <time>2018-06-26T04:53:52Z</time>
      </trkpt>
      <trkpt lat="45.08086" lon="5.62669">
        <ele>1143.99</ele>
        <time>2018-06-26T04:54:14Z</time>
      </trkpt>
      <trkpt lat="45.08092" lon="5.62643">
        <ele>1147.14</ele>
        <time>2018-06-26T04:54:40Z</time>
      </trkpt>
      <trkpt lat="45.08083" lon="5.62667">
        <ele>1152.68</ele>
        <time>2018-06-26T04:55:08Z</time>
      </trkpt>
      <trkpt lat="45.08093" lon="5.6269">
        <ele>1157.86</ele>
        <time>2018-06-26T04:55:26Z</time>
      </trkpt>
      <trkpt lat="45.08113" lon="5.62685">
        <ele>1166.32</ele>
        <time>2018-06-26T04:55:58Z</time>
      </trkpt>
      <trkpt lat="45.08127" lon="5.62668">
        <ele>1168.84</ele>
        <time>2018-06-26T04:56:08Z</time>
      </trkpt>
      <trkpt lat="45.08131" lon="5.62639">
        <ele>1172.12</ele>
        <time>2018-06-26T04:56:22Z</time>
      </trkpt>
      <trkpt lat="45.08127" lon="5.62613">
        <ele>1183.59</ele>
        <time>2018-06-26T04:57:08Z</time>
      </trkpt>
      <trkpt lat="45.08122" lon="5.62584">
        <ele>1185.16</ele>
        <time>2018-06-26T04:57:32Z</time>
      </trkpt>
      <trkpt lat="45.08117" lon="5.62557">
        <ele>1188.17</ele>
        <time>2018-06-26T04:58:06Z</time>
      </trkpt>
      <trkpt lat="45.08121" lon="5.62529">
        <ele>1191.69</ele>
        <time>2018-06-26T04:58:24Z</time>
      </trkpt>
      <trkpt lat="45.08136" lon="5.62504">
        <ele>1193.52</ele>
        <time>2018-06-26T04:58:36Z</time>
      </trkpt>
      <trkpt lat="45.08152" lon="5.62484">
        <ele>1196.21</ele>
        <time>2018-06-26T04:59:00Z</time>
      </trkpt>
      <trkpt lat="45.08165" lon="5.62466">
        <ele>1197.83</ele>
        <time>2018-06-26T04:59:14Z</time>
      </trkpt>
      <trkpt lat="45.0818" lon="5.62449">
        <ele>1202.26</ele>
        <time>2018-06-26T04:59:42Z</time>
      </trkpt>
      <trkpt lat="45.0819" lon="5.62425">
        <ele>1210.29</ele>
        <time>2018-06-26T05:00:14Z</time>
      </trkpt>
      <trkpt lat="45.08204" lon="5.62405">
        <ele>1216.37</ele>
        <time>2018-06-26T05:00:34Z</time>
      </trkpt>
      <trkpt lat="45.08195" lon="5.62381">
        <ele>1221.49</ele>
        <time>2018-06-26T05:00:52Z</time>
      </trkpt>
      <trkpt lat="45.08208" lon="5.62357">
        <ele>1229.21</ele>
        <time>2018-06-26T05:01:22Z</time>
      </trkpt>
      <trkpt lat="45.08228" lon="5.62361">
        <ele>1242.06</ele>
        <time>2018-06-26T05:02:08Z</time>
      </trkpt>
      <trkpt lat="45.08237" lon="5.6234">
        <ele>1246.16</ele>
        <time>2018-06-26T05:02:22Z</time>
      </trkpt>
      <trkpt lat="45.08245" lon="5.62315">
        <ele>1250.07</ele>
        <time>2018-06-26T05:02:38Z</time>
      </trkpt>
      <trkpt lat="45.08255" lon="5.62292">
        <ele>1254.18</ele>
        <time>2018-06-26T05:02:58Z</time>
      </trkpt>
      <trkpt lat="45.08262" lon="5.62267">
        <ele>1257.76</ele>
        <time>2018-06-26T05:03:14Z</time>
      </trkpt>
      <trkpt lat="45.08265" lon="5.62242">
        <ele>1269.73</ele>
        <time>2018-06-26T05:03:54Z</time>
      </trkpt>
      <trkpt lat="45.08257" lon="5.62219">
        <ele>1277.02</ele>
        <time>2018-06-26T05:04:16Z</time>
      </trkpt>
      <trkpt lat="45.0826" lon="5.62193">
        <ele>1281.99</ele>
        <time>2018-06-26T05:04:34Z</time>
      </trkpt>
      <trkpt lat="45.08255" lon="5.62167">
        <ele>1291.55</ele>
        <time>2018-06-26T05:05:06Z</time>
      </trkpt>
      <trkpt lat="45.08267" lon="5.62146">
        <ele>1299.97</ele>
        <time>2018-06-26T05:05:34Z</time>
      </trkpt>
      <trkpt lat="45.08263" lon="5.6212">
        <ele>1304.83</ele>
        <time>2018-06-26T05:05:52Z</time>
      </trkpt>
      <trkpt lat="45.08249" lon="5.62101">
        <ele>1310.89</ele>
        <time>2018-06-26T05:06:16Z</time>
      </trkpt>
      <trkpt lat="45.08238" lon="5.62081">
        <ele>1315.88</ele>
        <time>2018-06-26T05:06:40Z</time>
      </trkpt>
      <trkpt lat="45.08226" lon="5.62061">
        <ele>1325.7</ele>
        <time>2018-06-26T05:07:18Z</time>
      </trkpt>
      <trkpt lat="45.08247" lon="5.62049">
        <ele>1332.64</ele>
        <time>2018-06-26T05:07:42Z</time>
      </trkpt>
      <trkpt lat="45.08229" lon="5.62047">
        <ele>1333.44</ele>
        <time>2018-06-26T05:08:00Z</time>
      </trkpt>
      <trkpt lat="45.0822" lon="5.62023">
        <ele>1334.37</ele>
        <time>2018-06-26T05:08:16Z</time>
      </trkpt>
      <trkpt lat="45.08211" lon="5.62001">
        <ele>1341.43</ele>
        <time>2018-06-26T05:09:08Z</time>
      </trkpt>
      <trkpt lat="45.08227" lon="5.61986">
        <ele>1350.57</ele>
        <time>2018-06-26T05:09:52Z</time>
      </trkpt>
      <trkpt lat="45.08238" lon="5.61964">
        <ele>1356.77</ele>
        <time>2018-06-26T05:10:18Z</time>
      </trkpt>
      <trkpt lat="45.0825" lon="5.61942">
        <ele>1363.45</ele>
        <time>2018-06-26T05:10:46Z</time>
      </trkpt>
      <trkpt lat="45.08253" lon="5.61915">
        <ele>1371.67</ele>
        <time>2018-06-26T05:11:22Z</time>
      </trkpt>
      <trkpt lat="45.08271" lon="5.61902">
        <ele>1376.85</ele>
        <time>2018-06-26T05:11:46Z</time>
      </trkpt>
      <trkpt lat="45.08286" lon="5.61882">
        <ele>1384.3</ele>
        <time>2018-06-26T05:12:12Z</time>
      </trkpt>
      <trkpt lat="45.083" lon="5.61865">
        <ele>1396.56</ele>
        <time>2018-06-26T05:12:48Z</time>
      </trkpt>
      <trkpt lat="45.08281" lon="5.61863">
        <ele>1400.18</ele>
        <time>2018-06-26T05:13:00Z</time>
      </trkpt>
      <trkpt lat="45.08264" lon="5.61853">
        <ele>1404.96</ele>
        <time>2018-06-26T05:13:16Z</time>
      </trkpt>
      <trkpt lat="45.08254" lon="5.61832">
        <ele>1412.58</ele>
        <time>2018-06-26T05:13:40Z</time>
      </trkpt>
      <trkpt lat="45.08255" lon="5.61806">
        <ele>1421.9</ele>
        <time>2018-06-26T05:14:14Z</time>
      </trkpt>
      <trkpt lat="45.08255" lon="5.61779">
        <ele>1429.02</ele>
        <time>2018-06-26T05:14:48Z</time>
      </trkpt>
      <trkpt lat="45.08235" lon="5.6178">
        <ele>1433.59</ele>
        <time>2018-06-26T05:15:04Z</time>
      </trkpt>
      <trkpt lat="45.08217" lon="5.61773">
        <ele>1438.33</ele>
        <time>2018-06-26T05:15:22Z</time>
      </trkpt>
      <trkpt lat="45.08199" lon="5.61773">
        <ele>1448.6</ele>
        <time>2018-06-26T05:16:12Z</time>
      </trkpt>
      <trkpt lat="45.08183" lon="5.61762">
        <ele>1452.62</ele>
        <time>2018-06-26T05:16:34Z</time>
      </trkpt>
      <trkpt lat="45.08187" lon="5.61736">
        <ele>1456.4</ele>
        <time>2018-06-26T05:17:12Z</time>
      </trkpt>
      <trkpt lat="45.08201" lon="5.61714">
        <ele>1459.65</ele>
        <time>2018-06-26T05:17:46Z</time>
      </trkpt>
      <trkpt lat="45.08214" lon="5.61695">
        <ele>1462.27</ele>
        <time>2018-06-26T05:18:12Z</time>
      </trkpt>
      <trkpt lat="45.08227" lon="5.61674">
        <ele>1463.99</ele>
        <time>2018-06-26T05:18:30Z</time>
      </trkpt>
      <trkpt lat="45.08241" lon="5.61651">
        <ele>1468.34</ele>
        <time>2018-06-26T05:18:54Z</time>
      </trkpt>
      <trkpt lat="45.08249" lon="5.61628">
        <ele>1474.47</ele>
        <time>2018-06-26T05:19:16Z</time>
      </trkpt>
      <trkpt lat="45.08244" lon="5.61604">
        <ele>1495.45</ele>
        <time>2018-06-26T05:20:08Z</time>
      </trkpt>
      <trkpt lat="45.08226" lon="5.61615">
        <ele>1508.07</ele>
        <time>2018-06-26T05:20:48Z</time>
      </trkpt>
      <trkpt lat="45.08207" lon="5.61617">
        <ele>1513.63</ele>
        <time>2018-06-26T05:21:02Z</time>
      </trkpt>
      <trkpt lat="45.08188" lon="5.61619">
        <ele>1521.91</ele>
        <time>2018-06-26T05:21:22Z</time>
      </trkpt>
      <trkpt lat="45.0817" lon="5.61611">
        <ele>1528.07</ele>
        <time>2018-06-26T05:21:38Z</time>
      </trkpt>
      <trkpt lat="45.08157" lon="5.61592">
        <ele>1537.2</ele>
        <time>2018-06-26T05:22:08Z</time>
      </trkpt>
      <trkpt lat="45.0814" lon="5.61583">
        <ele>1542.76</ele>
        <time>2018-06-26T05:22:30Z</time>
      </trkpt>
      <trkpt lat="45.0814" lon="5.61557">
        <ele>1550.73</ele>
        <time>2018-06-26T05:23:12Z</time>
      </trkpt>
      <trkpt lat="45.08121" lon="5.61548">
        <ele>1555.53</ele>
        <time>2018-06-26T05:23:34Z</time>
      </trkpt>
      <trkpt lat="45.0812" lon="5.61522">
        <ele>1565.46</ele>
        <time>2018-06-26T05:24:18Z</time>
      </trkpt>
      <trkpt lat="45.08121" lon="5.61496">
        <ele>1577.42</ele>
        <time>2018-06-26T05:24:54Z</time>
      </trkpt>
      <trkpt lat="45.08114" lon="5.61472">
        <ele>1589.5</ele>
        <time>2018-06-26T05:25:30Z</time>
      </trkpt>
      <trkpt lat="45.08119" lon="5.61446">
        <ele>1598.61</ele>
        <time>2018-06-26T05:25:58Z</time>
      </trkpt>
      <trkpt lat="45.08109" lon="5.61423">
        <ele>1610.29</ele>
        <time>2018-06-26T05:26:44Z</time>
      </trkpt>
      <trkpt lat="45.08091" lon="5.61414">
        <ele>1615.88</ele>
        <time>2018-06-26T05:27:04Z</time>
      </trkpt>
      <trkpt lat="45.08092" lon="5.61388">
        <ele>1623.71</ele>
        <time>2018-06-26T05:27:32Z</time>
      </trkpt>
      <trkpt lat="45.08076" lon="5.61377">
        <ele>1630.06</ele>
        <time>2018-06-26T05:27:54Z</time>
      </trkpt>
      <trkpt lat="45.08093" lon="5.61365">
        <ele>1635.8</ele>
        <time>2018-06-26T05:28:16Z</time>
      </trkpt>
      <trkpt lat="45.08112" lon="5.6136">
        <ele>1640.12</ele>
        <time>2018-06-26T05:28:36Z</time>
      </trkpt>
      <trkpt lat="45.08129" lon="5.61348">
        <ele>1646.32</ele>
        <time>2018-06-26T05:29:24Z</time>
      </trkpt>
      <trkpt lat="45.08145" lon="5.61337">
        <ele>1649.4</ele>
        <time>2018-06-26T05:29:40Z</time>
      </trkpt>
      <trkpt lat="45.08162" lon="5.61329">
        <ele>1652.1</ele>
        <time>2018-06-26T05:29:56Z</time>
      </trkpt>
      <trkpt lat="45.08183" lon="5.61328">
        <ele>1655</ele>
        <time>2018-06-26T05:30:14Z</time>
      </trkpt>
      <trkpt lat="45.08202" lon="5.61327">
        <ele>1658.36</ele>
        <time>2018-06-26T05:30:34Z</time>
      </trkpt>
      <trkpt lat="45.08216" lon="5.61342">
        <ele>1661.93</ele>
        <time>2018-06-26T05:30:50Z</time>
      </trkpt>
      <trkpt lat="45.08234" lon="5.6135">
        <ele>1665.5</ele>
        <time>2018-06-26T05:31:06Z</time>
      </trkpt>
      <trkpt lat="45.08252" lon="5.61343">
        <ele>1669.46</ele>
        <time>2018-06-26T05:31:22Z</time>
      </trkpt>
      <trkpt lat="45.08272" lon="5.61341">
        <ele>1674.02</ele>
        <time>2018-06-26T05:31:38Z</time>
      </trkpt>
      <trkpt lat="45.08289" lon="5.61351">
        <ele>1679.73</ele>
        <time>2018-06-26T05:31:56Z</time>
      </trkpt>
      <trkpt lat="45.08305" lon="5.61337">
        <ele>1686.05</ele>
        <time>2018-06-26T05:32:14Z</time>
      </trkpt>
      <trkpt lat="45.08286" lon="5.61332">
        <ele>1713.56</ele>
        <time>2018-06-26T05:34:10Z</time>
      </trkpt>
      <trkpt lat="45.08268" lon="5.61314">
        <ele>1715.97</ele>
        <time>2018-06-26T05:34:20Z</time>
      </trkpt>
      <trkpt lat="45.0825" lon="5.61305">
        <ele>1717.67</ele>
        <time>2018-06-26T05:34:28Z</time>
      </trkpt>
      <trkpt lat="45.08235" lon="5.61289">
        <ele>1719.18</ele>
        <time>2018-06-26T05:34:36Z</time>
      </trkpt>
      <trkpt lat="45.08223" lon="5.6127">
        <ele>1720.88</ele>
        <time>2018-06-26T05:34:46Z</time>
      </trkpt>
      <trkpt lat="45.08211" lon="5.61247">
        <ele>1722.12</ele>
        <time>2018-06-26T05:34:54Z</time>
      </trkpt>
      <trkpt lat="45.08199" lon="5.61224">
        <ele>1723.68</ele>
        <time>2018-06-26T05:35:06Z</time>
      </trkpt>
      <trkpt lat="45.08178" lon="5.61215">
        <ele>1724.79</ele>
        <time>2018-06-26T05:35:16Z</time>
      </trkpt>
      <trkpt lat="45.08159" lon="5.61209">
        <ele>1725.6</ele>
        <time>2018-06-26T05:35:24Z</time>
      </trkpt>
      <trkpt lat="45.08139" lon="5.612">
        <ele>1726.6</ele>
        <time>2018-06-26T05:35:34Z</time>
      </trkpt>
      <trkpt lat="45.0812" lon="5.61194">
        <ele>1727.68</ele>
        <time>2018-06-26T05:35:44Z</time>
      </trkpt>
      <trkpt lat="45.08099" lon="5.6119">
        <ele>1729.16</ele>
        <time>2018-06-26T05:36:02Z</time>
      </trkpt>
      <trkpt lat="45.08083" lon="5.61202">
        <ele>1730.82</ele>
        <time>2018-06-26T05:36:24Z</time>
      </trkpt>
      <trkpt lat="45.08064" lon="5.61198">
        <ele>1750.64</ele>
        <time>2018-06-26T05:43:59Z</time>
      </trkpt>
      <trkpt lat="45.0807" lon="5.61223">
        <ele>1762.65</ele>
        <time>2018-06-26T05:49:29Z</time>
      </trkpt>
      <trkpt lat="45.08069" lon="5.61257">
        <ele>1764.12</ele>
        <time>2018-06-26T05:49:33Z</time>
      </trkpt>
      <trkpt lat="45.08072" lon="5.61288">
        <ele>1764.67</ele>
        <time>2018-06-26T05:49:37Z</time>
      </trkpt>
      <trkpt lat="45.08052" lon="5.61297">
        <ele>1764.82</ele>
        <time>2018-06-26T05:49:41Z</time>
      </trkpt>
      <trkpt lat="45.08027" lon="5.61311">
        <ele>1764.8</ele>
        <time>2018-06-26T05:49:45Z</time>
      </trkpt>
      <trkpt lat="45.08002" lon="5.61323">
        <ele>1764.06</ele>
        <time>2018-06-26T05:49:49Z</time>
      </trkpt>
      <trkpt lat="45.07973" lon="5.61332">
        <ele>1762.1</ele>
        <time>2018-06-26T05:49:53Z</time>
      </trkpt>
      <trkpt lat="45.07942" lon="5.6135">
        <ele>1759.29</ele>
        <time>2018-06-26T05:49:57Z</time>
      </trkpt>
      <trkpt lat="45.07912" lon="5.61349">
        <ele>1756.66</ele>
        <time>2018-06-26T05:50:01Z</time>
      </trkpt>
      <trkpt lat="45.07881" lon="5.61331">
        <ele>1754.42</ele>
        <time>2018-06-26T05:50:05Z</time>
      </trkpt>
      <trkpt lat="45.07849" lon="5.61323">
        <ele>1752.38</ele>
        <time>2018-06-26T05:50:09Z</time>
      </trkpt>
      <trkpt lat="45.07816" lon="5.61327">
        <ele>1750.41</ele>
        <time>2018-06-26T05:50:13Z</time>
      </trkpt>
      <trkpt lat="45.07787" lon="5.61321">
        <ele>1747.8</ele>
        <time>2018-06-26T05:50:17Z</time>
      </trkpt>
      <trkpt lat="45.07756" lon="5.6133">
        <ele>1745.05</ele>
        <time>2018-06-26T05:50:21Z</time>
      </trkpt>
      <trkpt lat="45.07723" lon="5.61327">
        <ele>1742.01</ele>
        <time>2018-06-26T05:50:25Z</time>
      </trkpt>
      <trkpt lat="45.07696" lon="5.61326">
        <ele>1739.2</ele>
        <time>2018-06-26T05:50:29Z</time>
      </trkpt>
      <trkpt lat="45.07671" lon="5.61333">
        <ele>1736.96</ele>
        <time>2018-06-26T05:50:33Z</time>
      </trkpt>
      <trkpt lat="45.0764" lon="5.61339">
        <ele>1734.54</ele>
        <time>2018-06-26T05:50:37Z</time>
      </trkpt>
      <trkpt lat="45.0761" lon="5.61343">
        <ele>1731.6</ele>
        <time>2018-06-26T05:50:41Z</time>
      </trkpt>
      <trkpt lat="45.07585" lon="5.61353">
        <ele>1727.63</ele>
        <time>2018-06-26T05:50:45Z</time>
      </trkpt>
      <trkpt lat="45.07557" lon="5.61368">
        <ele>1721.94</ele>
        <time>2018-06-26T05:50:49Z</time>
      </trkpt>
      <trkpt lat="45.07529" lon="5.61374">
        <ele>1717.47</ele>
        <time>2018-06-26T05:50:53Z</time>
      </trkpt>
      <trkpt lat="45.075" lon="5.61381">
        <ele>1712.69</ele>
        <time>2018-06-26T05:50:57Z</time>
      </trkpt>
      <trkpt lat="45.07476" lon="5.61391">
        <ele>1709.76</ele>
        <time>2018-06-26T05:51:01Z</time>
      </trkpt>
      <trkpt lat="45.07458" lon="5.61422">
        <ele>1706</ele>
        <time>2018-06-26T05:51:05Z</time>
      </trkpt>
      <trkpt lat="45.07468" lon="5.61455">
        <ele>1700.18</ele>
        <time>2018-06-26T05:51:09Z</time>
      </trkpt>
      <trkpt lat="45.07496" lon="5.61447">
        <ele>1696.68</ele>
        <time>2018-06-26T05:51:13Z</time>
      </trkpt>
      <trkpt lat="45.07525" lon="5.61459">
        <ele>1695</ele>
        <time>2018-06-26T05:51:17Z</time>
      </trkpt>
      <trkpt lat="45.07511" lon="5.6149">
        <ele>1691.77</ele>
        <time>2018-06-26T05:51:21Z</time>
      </trkpt>
      <trkpt lat="45.07477" lon="5.61488">
        <ele>1686.47</ele>
        <time>2018-06-26T05:51:25Z</time>
      </trkpt>
      <trkpt lat="45.07458" lon="5.61474">
        <ele>1683.38</ele>
        <time>2018-06-26T05:51:29Z</time>
      </trkpt>
      <trkpt lat="45.07433" lon="5.61499">
        <ele>1680.31</ele>
        <time>2018-06-26T05:51:33Z</time>
      </trkpt>
      <trkpt lat="45.07415" lon="5.61528">
        <ele>1677.67</ele>
        <time>2018-06-26T05:51:37Z</time>
      </trkpt>
      <trkpt lat="45.07413" lon="5.61572">
        <ele>1672.91</ele>
        <time>2018-06-26T05:51:41Z</time>
      </trkpt>
      <trkpt lat="45.0743" lon="5.61603">
        <ele>1666.2</ele>
        <time>2018-06-26T05:51:45Z</time>
      </trkpt>
      <trkpt lat="45.0743" lon="5.6164">
        <ele>1660.72</ele>
        <time>2018-06-26T05:51:49Z</time>
      </trkpt>
      <trkpt lat="45.07403" lon="5.61646">
        <ele>1655.59</ele>
        <time>2018-06-26T05:51:53Z</time>
      </trkpt>
      <trkpt lat="45.07374" lon="5.6164">
        <ele>1648.85</ele>
        <time>2018-06-26T05:51:57Z</time>
      </trkpt>
      <trkpt lat="45.07344" lon="5.61627">
        <ele>1642.2</ele>
        <time>2018-06-26T05:52:01Z</time>
      </trkpt>
      <trkpt lat="45.07318" lon="5.6162">
        <ele>1635.29</ele>
        <time>2018-06-26T05:52:05Z</time>
      </trkpt>
      <trkpt lat="45.07292" lon="5.61642">
        <ele>1629.91</ele>
        <time>2018-06-26T05:52:09Z</time>
      </trkpt>
      <trkpt lat="45.0726" lon="5.61649">
        <ele>1624.34</ele>
        <time>2018-06-26T05:52:13Z</time>
      </trkpt>
      <trkpt lat="45.07229" lon="5.61648">
        <ele>1619.58</ele>
        <time>2018-06-26T05:52:17Z</time>
      </trkpt>
      <trkpt lat="45.07206" lon="5.61681">
        <ele>1615.67</ele>
        <time>2018-06-26T05:52:21Z</time>
      </trkpt>
      <trkpt lat="45.07188" lon="5.61716">
        <ele>1612.22</ele>
        <time>2018-06-26T05:52:25Z</time>
      </trkpt>
      <trkpt lat="45.07161" lon="5.61719">
        <ele>1608.89</ele>
        <time>2018-06-26T05:52:29Z</time>
      </trkpt>
      <trkpt lat="45.07136" lon="5.61707">
        <ele>1606.11</ele>
        <time>2018-06-26T05:52:33Z</time>
      </trkpt>
      <trkpt lat="45.07107" lon="5.61697">
        <ele>1604.07</ele>
        <time>2018-06-26T05:52:37Z</time>
      </trkpt>
      <trkpt lat="45.07075" lon="5.61691">
        <ele>1602.28</ele>
        <time>2018-06-26T05:52:41Z</time>
      </trkpt>
      <trkpt lat="45.07044" lon="5.61691">
        <ele>1596.74</ele>
        <time>2018-06-26T05:52:45Z</time>
      </trkpt>
      <trkpt lat="45.07013" lon="5.61693">
        <ele>1589.8</ele>
        <time>2018-06-26T05:52:49Z</time>
      </trkpt>
      <trkpt lat="45.06987" lon="5.61669">
        <ele>1580.13</ele>
        <time>2018-06-26T05:52:53Z</time>
      </trkpt>
      <trkpt lat="45.0696" lon="5.61653">
        <ele>1571.21</ele>
        <time>2018-06-26T05:52:57Z</time>
      </trkpt>
      <trkpt lat="45.0693" lon="5.61664">
        <ele>1564.76</ele>
        <time>2018-06-26T05:53:01Z</time>
      </trkpt>
      <trkpt lat="45.06904" lon="5.61687">
        <ele>1560.55</ele>
        <time>2018-06-26T05:53:05Z</time>
      </trkpt>
      <trkpt lat="45.06891" lon="5.6173">
        <ele>1558.63</ele>
        <time>2018-06-26T05:53:09Z</time>
      </trkpt>
      <trkpt lat="45.06908" lon="5.61775">
        <ele>1557.18</ele>
        <time>2018-06-26T05:53:13Z</time>
      </trkpt>
      <trkpt lat="45.06928" lon="5.61814">
        <ele>1553.66</ele>
        <time>2018-06-26T05:53:17Z</time>
      </trkpt>
      <trkpt lat="45.06951" lon="5.61847">
        <ele>1548.25</ele>
        <time>2018-06-26T05:53:21Z</time>
      </trkpt>
      <trkpt lat="45.06974" lon="5.61884">
        <ele>1544.58</ele>
        <time>2018-06-26T05:53:25Z</time>
      </trkpt>
      <trkpt lat="45.06994" lon="5.61925">
        <ele>1541.49</ele>
        <time>2018-06-26T05:53:29Z</time>
      </trkpt>
      <trkpt lat="45.07013" lon="5.61962">
        <ele>1536.1</ele>
        <time>2018-06-26T05:53:33Z</time>
      </trkpt>
      <trkpt lat="45.07034" lon="5.61998">
        <ele>1530.46</ele>
        <time>2018-06-26T05:53:37Z</time>
      </trkpt>
      <trkpt lat="45.07054" lon="5.62027">
        <ele>1525.15</ele>
        <time>2018-06-26T05:53:41Z</time>
      </trkpt>
      <trkpt lat="45.07066" lon="5.6207">
        <ele>1519.23</ele>
        <time>2018-06-26T05:53:45Z</time>
      </trkpt>
      <trkpt lat="45.07076" lon="5.62111">
        <ele>1514.16</ele>
        <time>2018-06-26T05:53:49Z</time>
      </trkpt>
      <trkpt lat="45.07093" lon="5.62148">
        <ele>1506.07</ele>
        <time>2018-06-26T05:53:53Z</time>
      </trkpt>
      <trkpt lat="45.07102" lon="5.62191">
        <ele>1499.66</ele>
        <time>2018-06-26T05:53:57Z</time>
      </trkpt>
      <trkpt lat="45.07125" lon="5.62219">
        <ele>1495.32</ele>
        <time>2018-06-26T05:54:01Z</time>
      </trkpt>
      <trkpt lat="45.0715" lon="5.62246">
        <ele>1491.29</ele>
        <time>2018-06-26T05:54:05Z</time>
      </trkpt>
      <trkpt lat="45.07177" lon="5.62265">
        <ele>1485.38</ele>
        <time>2018-06-26T05:54:09Z</time>
      </trkpt>
      <trkpt lat="45.07207" lon="5.62267">
        <ele>1480.17</ele>
        <time>2018-06-26T05:54:13Z</time>
      </trkpt>
      <trkpt lat="45.07238" lon="5.62271">
        <ele>1475.71</ele>
        <time>2018-06-26T05:54:17Z</time>
      </trkpt>
      <trkpt lat="45.07268" lon="5.62278">
        <ele>1471.89</ele>
        <time>2018-06-26T05:54:21Z</time>
      </trkpt>
      <trkpt lat="45.07298" lon="5.62277">
        <ele>1467.09</ele>
        <time>2018-06-26T05:54:25Z</time>
      </trkpt>
      <trkpt lat="45.07322" lon="5.62306">
        <ele>1459.94</ele>
        <time>2018-06-26T05:54:29Z</time>
      </trkpt>
      <trkpt lat="45.07335" lon="5.6234">
        <ele>1453.62</ele>
        <time>2018-06-26T05:54:33Z</time>
      </trkpt>
      <trkpt lat="45.07362" lon="5.62362">
        <ele>1448.56</ele>
        <time>2018-06-26T05:54:37Z</time>
      </trkpt>
      <trkpt lat="45.0739" lon="5.62357">
        <ele>1443.09</ele>
        <time>2018-06-26T05:54:41Z</time>
      </trkpt>
      <trkpt lat="45.07406" lon="5.62392">
        <ele>1436.99</ele>
        <time>2018-06-26T05:54:45Z</time>
      </trkpt>
      <trkpt lat="45.07386" lon="5.62427">
        <ele>1431.68</ele>
        <time>2018-06-26T05:54:49Z</time>
      </trkpt>
      <trkpt lat="45.07361" lon="5.62454">
        <ele>1426.54</ele>
        <time>2018-06-26T05:54:53Z</time>
      </trkpt>
      <trkpt lat="45.07346" lon="5.6249">
        <ele>1421.15</ele>
        <time>2018-06-26T05:54:57Z</time>
      </trkpt>
      <trkpt lat="45.0735" lon="5.62531">
        <ele>1414.4</ele>
        <time>2018-06-26T05:55:01Z</time>
      </trkpt>
      <trkpt lat="45.07371" lon="5.62556">
        <ele>1408.71</ele>
        <time>2018-06-26T05:55:05Z</time>
      </trkpt>
      <trkpt lat="45.074" lon="5.62564">
        <ele>1402.83</ele>
        <time>2018-06-26T05:55:09Z</time>
      </trkpt>
      <trkpt lat="45.07416" lon="5.62598">
        <ele>1395.42</ele>
        <time>2018-06-26T05:55:13Z</time>
      </trkpt>
      <trkpt lat="45.07427" lon="5.62634">
        <ele>1387.27</ele>
        <time>2018-06-26T05:55:17Z</time>
      </trkpt>
      <trkpt lat="45.07432" lon="5.62671">
        <ele>1379.69</ele>
        <time>2018-06-26T05:55:21Z</time>
      </trkpt>
      <trkpt lat="45.07433" lon="5.6271">
        <ele>1372.97</ele>
        <time>2018-06-26T05:55:25Z</time>
      </trkpt>
      <trkpt lat="45.07445" lon="5.62746">
        <ele>1367.8</ele>
        <time>2018-06-26T05:55:29Z</time>
      </trkpt>
      <trkpt lat="45.07466" lon="5.62779">
        <ele>1363.84</ele>
        <time>2018-06-26T05:55:33Z</time>
      </trkpt>
      <trkpt lat="45.07485" lon="5.62814">
        <ele>1359.95</ele>
        <time>2018-06-26T05:55:37Z</time>
      </trkpt>
      <trkpt lat="45.07488" lon="5.62856">
        <ele>1354.67</ele>
        <time>2018-06-26T05:55:41Z</time>
      </trkpt>
      <trkpt lat="45.07483" lon="5.62893">
        <ele>1348.79</ele>
        <time>2018-06-26T05:55:45Z</time>
      </trkpt>
      <trkpt lat="45.0748" lon="5.62929">
        <ele>1343.34</ele>
        <time>2018-06-26T05:55:49Z</time>
      </trkpt>
      <trkpt lat="45.0749" lon="5.62974">
        <ele>1337.57</ele>
        <time>2018-06-26T05:55:53Z</time>
      </trkpt>
      <trkpt lat="45.07496" lon="5.63016">
        <ele>1329.33</ele>
        <time>2018-06-26T05:55:57Z</time>
      </trkpt>
      <trkpt lat="45.07498" lon="5.63061">
        <ele>1322.63</ele>
        <time>2018-06-26T05:56:01Z</time>
      </trkpt>
      <trkpt lat="45.07505" lon="5.63107">
        <ele>1317.98</ele>
        <time>2018-06-26T05:56:05Z</time>
      </trkpt>
      <trkpt lat="45.07517" lon="5.63152">
        <ele>1314.29</ele>
        <time>2018-06-26T05:56:09Z</time>
      </trkpt>
      <trkpt lat="45.07534" lon="5.63192">
        <ele>1309.34</ele>
        <time>2018-06-26T05:56:13Z</time>
      </trkpt>
      <trkpt lat="45.07547" lon="5.63233">
        <ele>1303.81</ele>
        <time>2018-06-26T05:56:17Z</time>
      </trkpt>
      <trkpt lat="45.0756" lon="5.63274">
        <ele>1299.23</ele>
        <time>2018-06-26T05:56:21Z</time>
      </trkpt>
      <trkpt lat="45.07571" lon="5.63315">
        <ele>1293.41</ele>
        <time>2018-06-26T05:56:25Z</time>
      </trkpt>
      <trkpt lat="45.07569" lon="5.6336">
        <ele>1289.51</ele>
        <time>2018-06-26T05:56:29Z</time>
      </trkpt>
      <trkpt lat="45.07565" lon="5.63402">
        <ele>1285.04</ele>
        <time>2018-06-26T05:56:33Z</time>
      </trkpt>
      <trkpt lat="45.07558" lon="5.63438">
        <ele>1279.39</ele>
        <time>2018-06-26T05:56:37Z</time>
      </trkpt>
      <trkpt lat="45.07551" lon="5.63477">
        <ele>1273.89</ele>
        <time>2018-06-26T05:56:41Z</time>
      </trkpt>
      <trkpt lat="45.07548" lon="5.63518">
        <ele>1266.17</ele>
        <time>2018-06-26T05:56:45Z</time>
      </trkpt>
      <trkpt lat="45.07555" lon="5.63558">
        <ele>1258.18</ele>
        <time>2018-06-26T05:56:49Z</time>
      </trkpt>
      <trkpt lat="45.07566" lon="5.63597">
        <ele>1250.85</ele>
        <time>2018-06-26T05:56:53Z</time>
      </trkpt>
      <trkpt lat="45.07583" lon="5.63636">
        <ele>1245.13</ele>
        <time>2018-06-26T05:56:57Z</time>
      </trkpt>
      <trkpt lat="45.07603" lon="5.6367">
        <ele>1241.5</ele>
        <time>2018-06-26T05:57:01Z</time>
      </trkpt>
      <trkpt lat="45.07622" lon="5.63703">
        <ele>1238.4</ele>
        <time>2018-06-26T05:57:05Z</time>
      </trkpt>
      <trkpt lat="45.07646" lon="5.63738">
        <ele>1236.14</ele>
        <time>2018-06-26T05:57:09Z</time>
      </trkpt>
      <trkpt lat="45.07669" lon="5.63767">
        <ele>1234.64</ele>
        <time>2018-06-26T05:57:13Z</time>
      </trkpt>
      <trkpt lat="45.07695" lon="5.63796">
        <ele>1232.66</ele>
        <time>2018-06-26T05:57:17Z</time>
      </trkpt>
      <trkpt lat="45.07723" lon="5.63819">
        <ele>1226.95</ele>
        <time>2018-06-26T05:57:21Z</time>
      </trkpt>
      <trkpt lat="45.07753" lon="5.63844">
        <ele>1218.56</ele>
        <time>2018-06-26T05:57:25Z</time>
      </trkpt>
      <trkpt lat="45.07778" lon="5.63879">
        <ele>1212.11</ele>
        <time>2018-06-26T05:57:29Z</time>
      </trkpt>
      <trkpt lat="45.07802" lon="5.63905">
        <ele>1207.96</ele>
        <time>2018-06-26T05:57:33Z</time>
      </trkpt>
      <trkpt lat="45.07807" lon="5.63951">
        <ele>1204.64</ele>
        <time>2018-06-26T05:57:37Z</time>
      </trkpt>
      <trkpt lat="45.07811" lon="5.63995">
        <ele>1202.48</ele>
        <time>2018-06-26T05:57:41Z</time>
      </trkpt>
      <trkpt lat="45.07823" lon="5.64033">
        <ele>1199.69</ele>
        <time>2018-06-26T05:57:45Z</time>
      </trkpt>
      <trkpt lat="45.07838" lon="5.64066">
        <ele>1197.8</ele>
        <time>2018-06-26T05:57:49Z</time>
      </trkpt>
      <trkpt lat="45.0785" lon="5.64103">
        <ele>1195.55</ele>
        <time>2018-06-26T05:57:53Z</time>
      </trkpt>
      <trkpt lat="45.07859" lon="5.64145">
        <ele>1193.55</ele>
        <time>2018-06-26T05:57:57Z</time>
      </trkpt>
      <trkpt lat="45.07864" lon="5.64183">
        <ele>1185.26</ele>
        <time>2018-06-26T05:58:01Z</time>
      </trkpt>
      <trkpt lat="45.07839" lon="5.64201">
        <ele>1176.27</ele>
        <time>2018-06-26T05:58:05Z</time>
      </trkpt>
      <trkpt lat="45.07817" lon="5.64177">
        <ele>1170.08</ele>
        <time>2018-06-26T05:58:09Z</time>
      </trkpt>
      <trkpt lat="45.07788" lon="5.64166">
        <ele>1166.17</ele>
        <time>2018-06-26T05:58:13Z</time>
      </trkpt>
      <trkpt lat="45.07762" lon="5.6418">
        <ele>1163.26</ele>
        <time>2018-06-26T05:58:17Z</time>
      </trkpt>
      <trkpt lat="45.0774" lon="5.64214">
        <ele>1158.46</ele>
        <time>2018-06-26T05:58:21Z</time>
      </trkpt>
      <trkpt lat="45.07724" lon="5.64254">
        <ele>1149.99</ele>
        <time>2018-06-26T05:58:25Z</time>
      </trkpt>
      <trkpt lat="45.07706" lon="5.64286">
        <ele>1142.65</ele>
        <time>2018-06-26T05:58:29Z</time>
      </trkpt>
      <trkpt lat="45.07689" lon="5.64321">
        <ele>1135.81</ele>
        <time>2018-06-26T05:58:33Z</time>
      </trkpt>
      <trkpt lat="45.07672" lon="5.64362">
        <ele>1128.99</ele>
        <time>2018-06-26T05:58:37Z</time>
      </trkpt>
      <trkpt lat="45.07659" lon="5.64404">
        <ele>1122.97</ele>
        <time>2018-06-26T05:58:41Z</time>
      </trkpt>
      <trkpt lat="45.07646" lon="5.64446">
        <ele>1118.14</ele>
        <time>2018-06-26T05:58:45Z</time>
      </trkpt>
      <trkpt lat="45.0763" lon="5.6448">
        <ele>1111.34</ele>
        <time>2018-06-26T05:58:49Z</time>
      </trkpt>
      <trkpt lat="45.07612" lon="5.64483">
        <ele>1106.61</ele>
        <time>2018-06-26T05:58:51Z</time>
      </trkpt>
      <trkpt lat="45.07591" lon="5.64453">
        <ele>1096.16</ele>
        <time>2018-06-26T05:58:55Z</time>
      </trkpt>
      <trkpt lat="45.07564" lon="5.64441">
        <ele>1085.44</ele>
        <time>2018-06-26T05:58:59Z</time>
      </trkpt>
      <trkpt lat="45.0754" lon="5.64463">
        <ele>1076.88</ele>
        <time>2018-06-26T05:59:03Z</time>
      </trkpt>
      <trkpt lat="45.0752" lon="5.64499">
        <ele>1069.08</ele>
        <time>2018-06-26T05:59:07Z</time>
      </trkpt>
      <trkpt lat="45.07492" lon="5.64495">
        <ele>1059.47</ele>
        <time>2018-06-26T05:59:11Z</time>
      </trkpt>
      <trkpt lat="45.07512" lon="5.64457">
        <ele>1048.43</ele>
        <time>2018-06-26T05:59:15Z</time>
      </trkpt>
      <trkpt lat="45.07531" lon="5.64473">
        <ele>1042.88</ele>
        <time>2018-06-26T05:59:17Z</time>
      </trkpt>
      <trkpt lat="45.07535" lon="5.64509">
        <ele>1039.7</ele>
        <time>2018-06-26T05:59:19Z</time>
      </trkpt>
      <trkpt lat="45.07513" lon="5.6448">
        <ele>1027.6</ele>
        <time>2018-06-26T05:59:25Z</time>
      </trkpt>
      <trkpt lat="45.07502" lon="5.64458">
        <ele>1022.77</ele>
        <time>2018-06-26T05:59:27Z</time>
      </trkpt>
      <trkpt lat="45.07485" lon="5.6444">
        <ele>1017.88</ele>
        <time>2018-06-26T05:59:29Z</time>
      </trkpt>
      <trkpt lat="45.07467" lon="5.64437">
        <ele>1013.54</ele>
        <time>2018-06-26T05:59:31Z</time>
      </trkpt>
      <trkpt lat="45.07448" lon="5.64448">
        <ele>1009.6</ele>
        <time>2018-06-26T05:59:33Z</time>
      </trkpt>
      <trkpt lat="45.07436" lon="5.64467">
        <ele>1006.09</ele>
        <time>2018-06-26T05:59:35Z</time>
      </trkpt>
      <trkpt lat="45.0742" lon="5.64503">
        <ele>999.86</ele>
        <time>2018-06-26T05:59:39Z</time>
      </trkpt>
      <trkpt lat="45.07393" lon="5.64521">
        <ele>993.22</ele>
        <time>2018-06-26T05:59:43Z</time>
      </trkpt>
      <trkpt lat="45.07364" lon="5.64516">
        <ele>987.16</ele>
        <time>2018-06-26T05:59:47Z</time>
      </trkpt>
      <trkpt lat="45.07339" lon="5.64538">
        <ele>982.57</ele>
        <time>2018-06-26T05:59:51Z</time>
      </trkpt>
      <trkpt lat="45.0734" lon="5.64577">
        <ele>978.72</ele>
        <time>2018-06-26T05:59:55Z</time>
      </trkpt>
      <trkpt lat="45.07361" lon="5.64557">
        <ele>976.24</ele>
        <time>2018-06-26T05:59:59Z</time>
      </trkpt>
      <trkpt lat="45.07341" lon="5.64564">
        <ele>968.54</ele>
        <time>2018-06-26T06:00:05Z</time>
      </trkpt>
      <trkpt lat="45.07336" lon="5.64593">
        <ele>945.26</ele>
        <time>2018-06-26T06:00:13Z</time>
      </trkpt>
      <trkpt lat="45.07352" lon="5.64605">
        <ele>939.07</ele>
        <time>2018-06-26T06:00:15Z</time>
      </trkpt>
      <trkpt lat="45.07361" lon="5.6458">
        <ele>930.75</ele>
        <time>2018-06-26T06:00:19Z</time>
      </trkpt>
      <trkpt lat="45.0734" lon="5.64595">
        <ele>923.8</ele>
        <time>2018-06-26T06:00:23Z</time>
      </trkpt>
      <trkpt lat="45.07312" lon="5.64601">
        <ele>913.71</ele>
        <time>2018-06-26T06:00:27Z</time>
      </trkpt>
      <trkpt lat="45.07309" lon="5.64572">
        <ele>907.95</ele>
        <time>2018-06-26T06:00:29Z</time>
      </trkpt>
      <trkpt lat="45.07337" lon="5.64575">
        <ele>895.35</ele>
        <time>2018-06-26T06:00:33Z</time>
      </trkpt>
      <trkpt lat="45.07336" lon="5.64602">
        <ele>889.95</ele>
        <time>2018-06-26T06:00:35Z</time>
      </trkpt>
      <trkpt lat="45.07318" lon="5.64607">
        <ele>885.26</ele>
        <time>2018-06-26T06:00:37Z</time>
      </trkpt>
      <trkpt lat="45.07313" lon="5.64577">
        <ele>878.86</ele>
        <time>2018-06-26T06:00:41Z</time>
      </trkpt>
      <trkpt lat="45.07305" lon="5.64532">
        <ele>874.64</ele>
        <time>2018-06-26T06:00:45Z</time>
      </trkpt>
      <trkpt lat="45.07283" lon="5.64517">
        <ele>870.77</ele>
        <time>2018-06-26T06:00:49Z</time>
      </trkpt>
      <trkpt lat="45.07256" lon="5.64537">
        <ele>867.49</ele>
        <time>2018-06-26T06:00:53Z</time>
      </trkpt>
      <trkpt lat="45.07228" lon="5.64539">
        <ele>863.95</ele>
        <time>2018-06-26T06:00:57Z</time>
      </trkpt>
      <trkpt lat="45.07206" lon="5.6451">
        <ele>859.85</ele>
        <time>2018-06-26T06:01:01Z</time>
      </trkpt>
      <trkpt lat="45.07188" lon="5.64487">
        <ele>854.43</ele>
        <time>2018-06-26T06:01:05Z</time>
      </trkpt>
      <trkpt lat="45.07166" lon="5.64485">
        <ele>849.36</ele>
        <time>2018-06-26T06:01:09Z</time>
      </trkpt>
      <trkpt lat="45.07136" lon="5.64483">
        <ele>843.84</ele>
        <time>2018-06-26T06:01:13Z</time>
      </trkpt>
      <trkpt lat="45.07121" lon="5.6447">
        <ele>838.26</ele>
        <time>2018-06-26T06:01:15Z</time>
      </trkpt>
      <trkpt lat="45.07109" lon="5.64429">
        <ele>826.18</ele>
        <time>2018-06-26T06:01:19Z</time>
      </trkpt>
      <trkpt lat="45.07102" lon="5.64386">
        <ele>816.63</ele>
        <time>2018-06-26T06:01:23Z</time>
      </trkpt>
      <trkpt lat="45.07087" lon="5.64345">
        <ele>809.66</ele>
        <time>2018-06-26T06:01:27Z</time>
      </trkpt>
      <trkpt lat="45.07066" lon="5.64313">
        <ele>804.78</ele>
        <time>2018-06-26T06:01:31Z</time>
      </trkpt>
      <trkpt lat="45.0705" lon="5.64299">
        <ele>802.94</ele>
        <time>2018-06-26T06:01:33Z</time>
      </trkpt>
      <trkpt lat="45.07034" lon="5.64286">
        <ele>800.92</ele>
        <time>2018-06-26T06:01:35Z</time>
      </trkpt>
      <trkpt lat="45.07015" lon="5.64249">
        <ele>796.55</ele>
        <time>2018-06-26T06:01:39Z</time>
      </trkpt>
      <trkpt lat="45.07012" lon="5.64204">
        <ele>793.73</ele>
        <time>2018-06-26T06:01:43Z</time>
      </trkpt>
      <trkpt lat="45.07005" lon="5.64161">
        <ele>791.52</ele>
        <time>2018-06-26T06:01:47Z</time>
      </trkpt>
      <trkpt lat="45.06991" lon="5.6412">
        <ele>789.22</ele>
        <time>2018-06-26T06:01:51Z</time>
      </trkpt>
      <trkpt lat="45.06974" lon="5.6408">
        <ele>787.27</ele>
        <time>2018-06-26T06:01:55Z</time>
      </trkpt>
      <trkpt lat="45.06965" lon="5.64039">
        <ele>785.02</ele>
        <time>2018-06-26T06:01:59Z</time>
      </trkpt>
      <trkpt lat="45.06944" lon="5.64008">
        <ele>782.3</ele>
        <time>2018-06-26T06:02:03Z</time>
      </trkpt>
      <trkpt lat="45.06927" lon="5.64018">
        <ele>780.86</ele>
        <time>2018-06-26T06:02:05Z</time>
      </trkpt>
      <trkpt lat="45.06923" lon="5.64062">
        <ele>778</ele>
        <time>2018-06-26T06:02:09Z</time>
      </trkpt>
      <trkpt lat="45.06938" lon="5.64093">
        <ele>775.57</ele>
        <time>2018-06-26T06:02:13Z</time>
      </trkpt>
      <trkpt lat="45.0696" lon="5.64116">
        <ele>773.97</ele>
        <time>2018-06-26T06:02:17Z</time>
      </trkpt>
      <trkpt lat="45.06957" lon="5.64155">
        <ele>772.17</ele>
        <time>2018-06-26T06:02:21Z</time>
      </trkpt>
      <trkpt lat="45.06927" lon="5.64149">
        <ele>770.59</ele>
        <time>2018-06-26T06:02:25Z</time>
      </trkpt>
      <trkpt lat="45.06914" lon="5.64111">
        <ele>769.15</ele>
        <time>2018-06-26T06:02:29Z</time>
      </trkpt>
      <trkpt lat="45.06902" lon="5.64074">
        <ele>767.01</ele>
        <time>2018-06-26T06:02:33Z</time>
      </trkpt>
      <trkpt lat="45.06885" lon="5.64042">
        <ele>764.38</ele>
        <time>2018-06-26T06:02:37Z</time>
      </trkpt>
      <trkpt lat="45.06867" lon="5.64017">
        <ele>761.87</ele>
        <time>2018-06-26T06:02:41Z</time>
      </trkpt>
      <trkpt lat="45.06842" lon="5.63985">
        <ele>759.49</ele>
        <time>2018-06-26T06:02:45Z</time>
      </trkpt>
      <trkpt lat="45.06815" lon="5.63965">
        <ele>757.22</ele>
        <time>2018-06-26T06:02:49Z</time>
      </trkpt>
      <trkpt lat="45.0681" lon="5.63999">
        <ele>755.93</ele>
        <time>2018-06-26T06:02:53Z</time>
      </trkpt>
      <trkpt lat="45.06835" lon="5.63998">
        <ele>755.09</ele>
        <time>2018-06-26T06:02:57Z</time>
      </trkpt>
      <trkpt lat="45.0681" lon="5.63985">
        <ele>754.11</ele>
        <time>2018-06-26T06:03:01Z</time>
      </trkpt>
      <trkpt lat="45.06826" lon="5.64002">
        <ele>753.46</ele>
        <time>2018-06-26T06:03:05Z</time>
      </trkpt>
      <trkpt lat="45.06825" lon="5.63974">
        <ele>753.14</ele>
        <time>2018-06-26T06:03:07Z</time>
      </trkpt>
      <trkpt lat="45.06808" lon="5.63967">
        <ele>751.91</ele>
        <time>2018-06-26T06:03:09Z</time>
      </trkpt>
      <trkpt lat="45.06821" lon="5.63995">
        <ele>745.53</ele>
        <time>2018-06-26T06:03:13Z</time>
      </trkpt>
      <trkpt lat="45.06817" lon="5.63957">
        <ele>739.7</ele>
        <time>2018-06-26T06:03:17Z</time>
      </trkpt>
      <trkpt lat="45.06799" lon="5.63962">
        <ele>740.15</ele>
        <time>2018-06-26T06:03:19Z</time>
      </trkpt>
      <trkpt lat="45.06812" lon="5.63994">
        <ele>733.53</ele>
        <time>2018-06-26T06:03:23Z</time>
      </trkpt>
      <trkpt lat="45.06829" lon="5.64006">
        <ele>726.46</ele>
        <time>2018-06-26T06:03:25Z</time>
      </trkpt>
      <trkpt lat="45.06848" lon="5.64008">
        <ele>718.41</ele>
        <time>2018-06-26T06:03:27Z</time>
      </trkpt>
      <trkpt lat="45.06872" lon="5.63975">
        <ele>703.78</ele>
        <time>2018-06-26T06:03:31Z</time>
      </trkpt>
      <trkpt lat="45.06891" lon="5.64001">
        <ele>684.48</ele>
        <time>2018-06-26T06:03:35Z</time>
      </trkpt>
      <trkpt lat="45.06863" lon="5.63998">
        <ele>659.63</ele>
        <time>2018-06-26T06:03:39Z</time>
      </trkpt>
      <trkpt lat="45.06874" lon="5.63971">
        <ele>651.63</ele>
        <time>2018-06-26T06:03:41Z</time>
      </trkpt>
      <trkpt lat="45.06892" lon="5.63965">
        <ele>644.68</ele>
        <time>2018-06-26T06:03:43Z</time>
      </trkpt>
      <trkpt lat="45.06911" lon="5.63997">
        <ele>631.66</ele>
        <time>2018-06-26T06:03:47Z</time>
      </trkpt>
      <trkpt lat="45.0691" lon="5.64033">
        <ele>623.15</ele>
        <time>2018-06-26T06:03:51Z</time>
      </trkpt>
      <trkpt lat="45.06919" lon="5.64064">
        <ele>615.37</ele>
        <time>2018-06-26T06:03:55Z</time>
      </trkpt>
      <trkpt lat="45.0689" lon="5.64057">
        <ele>605.14</ele>
        <time>2018-06-26T06:03:59Z</time>
      </trkpt>
      <trkpt lat="45.06898" lon="5.64031">
        <ele>601.17</ele>
        <time>2018-06-26T06:04:01Z</time>
      </trkpt>
      <trkpt lat="45.06913" lon="5.64061">
        <ele>592.75</ele>
        <time>2018-06-26T06:04:05Z</time>
      </trkpt>
      <trkpt lat="45.06901" lon="5.64029">
        <ele>587.56</ele>
        <time>2018-06-26T06:04:09Z</time>
      </trkpt>
      <trkpt lat="45.06919" lon="5.64042">
        <ele>581.83</ele>
        <time>2018-06-26T06:04:13Z</time>
      </trkpt>
      <trkpt lat="45.06897" lon="5.64029">
        <ele>580.46</ele>
        <time>2018-06-26T06:04:17Z</time>
      </trkpt>
      <trkpt lat="45.06921" lon="5.64032">
        <ele>576.43</ele>
        <time>2018-06-26T06:04:21Z</time>
      </trkpt>
      <trkpt lat="45.06948" lon="5.64047">
        <ele>566.65</ele>
        <time>2018-06-26T06:04:25Z</time>
      </trkpt>
      <trkpt lat="45.06966" lon="5.64008">
        <ele>556.01</ele>
        <time>2018-06-26T06:04:29Z</time>
      </trkpt>
      <trkpt lat="45.0695" lon="5.63966">
        <ele>548.4</ele>
        <time>2018-06-26T06:04:33Z</time>
      </trkpt>
      <trkpt lat="45.06923" lon="5.63955">
        <ele>540.66</ele>
        <time>2018-06-26T06:04:37Z</time>
      </trkpt>
      <trkpt lat="45.06907" lon="5.63977">
        <ele>529.46</ele>
        <time>2018-06-26T06:04:41Z</time>
      </trkpt>
      <trkpt lat="45.06899" lon="5.64006">
        <ele>516.41</ele>
        <time>2018-06-26T06:04:45Z</time>
      </trkpt>
      <trkpt lat="45.06912" lon="5.64036">
        <ele>500.7</ele>
        <time>2018-06-26T06:04:49Z</time>
      </trkpt>
      <trkpt lat="45.06931" lon="5.64027">
        <ele>487.56</ele>
        <time>2018-06-26T06:04:53Z</time>
      </trkpt>
      <trkpt lat="45.06921" lon="5.63987">
        <ele>480.25</ele>
        <time>2018-06-26T06:04:57Z</time>
      </trkpt>
      <trkpt lat="45.06897" lon="5.64008">
        <ele>476.05</ele>
        <time>2018-06-26T06:05:01Z</time>
      </trkpt>
      <trkpt lat="45.0692" lon="5.6402">
        <ele>472.21</ele>
        <time>2018-06-26T06:05:05Z</time>
      </trkpt>
      <trkpt lat="45.06953" lon="5.64017">
        <ele>468.48</ele>
        <time>2018-06-26T06:05:09Z</time>
      </trkpt>
      <trkpt lat="45.06979" lon="5.64035">
        <ele>465.45</ele>
        <time>2018-06-26T06:05:13Z</time>
      </trkpt>
      <trkpt lat="45.06994" lon="5.6406">
        <ele>457.75</ele>
        <time>2018-06-26T06:05:17Z</time>
      </trkpt>
      <trkpt lat="45.07004" lon="5.64084">
        <ele>445.43</ele>
        <time>2018-06-26T06:05:21Z</time>
      </trkpt>
      <trkpt lat="45.07013" lon="5.64107">
        <ele>436.38</ele>
        <time>2018-06-26T06:05:27Z</time>
      </trkpt>
      <trkpt lat="45.0702" lon="5.64131">
        <ele>405.17</ele>
        <time>2018-06-26T06:14:37Z</time>
      </trkpt>
      <trkpt lat="45.07014" lon="5.64156">
        <ele>400.41</ele>
        <time>2018-06-26T06:17:07Z</time>
      </trkpt>
      <trkpt lat="45.07032" lon="5.6417">
        <ele>400.69</ele>
        <time>2018-06-26T06:19:45Z</time>
      </trkpt>
      <trkpt lat="45.07046" lon="5.64192">
        <ele>401.08</ele>
        <time>2018-06-26T06:19:55Z</time>
      </trkpt>
      <trkpt lat="45.07067" lon="5.6421">
        <ele>401.48</ele>
        <time>2018-06-26T06:20:01Z</time>
      </trkpt>
      <trkpt lat="45.07087" lon="5.64226">
        <ele>401.64</ele>
        <time>2018-06-26T06:20:07Z</time>
      </trkpt>
      <trkpt lat="45.07105" lon="5.64233">
        <ele>401.78</ele>
        <time>2018-06-26T06:20:11Z</time>
      </trkpt>
      <trkpt lat="45.07129" lon="5.64225">
        <ele>401.84</ele>
        <time>2018-06-26T06:20:17Z</time>
      </trkpt>
      <trkpt lat="45.0715" lon="5.64225">
        <ele>401.88</ele>
        <time>2018-06-26T06:20:23Z</time>
      </trkpt>
      <trkpt lat="45.07157" lon="5.64249">
        <ele>401.87</ele>
        <time>2018-06-26T06:20:35Z</time>
      </trkpt>
      <trkpt lat="45.07143" lon="5.64286">
        <ele>401.81</ele>
        <time>2018-06-26T06:20:43Z</time>
      </trkpt>
    </trkseg>
  </trk>
</gpx>